Time;durP1;ratioP1;P1;durP2;ratioP2;P2;SDS_P1;SDS_P2;PMS_P1;PMS_P2;Temp;Humidity;BMP_temperature;BMP_pressure;BME280_temperature;BME280_humidity;BME280_pressure;Samples;Min_cycle;Max_cycle;Signal;HPM_P1;HPM_P2
2022/01/23 00:00:04;;;;;;;10.57;5.63;;;5.40;99.90;;;;;;4945702;28;20020;-63
2022/01/23 00:02:32;;;;;;;13.75;5.97;;;5.50;99.90;;;;;;4941234;28;20038;-63
2022/01/23 00:04:58;;;;;;;16.77;5.65;;;5.50;99.90;;;;;;4945089;28;20242;-63
2022/01/23 00:07:25;;;;;;;14.95;6.43;;;5.40;99.90;;;;;;4941506;28;20098;-63
2022/01/23 00:09:51;;;;;;;27.95;9.30;;;5.40;99.90;;;;;;4942974;28;20027;-63
2022/01/23 00:12:20;;;;;;;19.70;6.18;;;5.40;99.90;;;;;;4930295;29;20031;-63
2022/01/23 00:17:34;;;;;;;24.98;8.82;;;5.40;99.90;;;;;;4941405;28;20034;-63
2022/01/23 00:20:14;;;;;;;24.05;10.73;;;5.40;99.90;;;;;;4948997;28;20102;-63
2022/01/23 00:22:59;;;;;;;20.70;5.57;;;5.40;99.90;;;;;;4934809;29;20063;-63
2022/01/23 00:30:57;;;;;;;16.13;7.10;;;5.40;99.90;;;;;;4939591;28;20095;-63
2022/01/23 00:33:23;;;;;;;30.55;9.55;;;5.40;99.90;;;;;;4943019;28;20535;-63
2022/01/23 00:35:49;;;;;;;21.90;8.73;;;5.40;99.90;;;;;;4947628;28;20039;-63
2022/01/23 00:38:16;;;;;;;21.98;7.60;;;5.40;99.90;;;;;;4919669;29;20039;-62
2022/01/23 00:40:43;;;;;;;23.35;7.47;;;5.40;99.90;;;;;;4945658;28;20039;-63
2022/01/23 00:43:16;;;;;;;19.98;10.63;;;5.40;99.90;;;;;;4948758;28;20031;-63
2022/01/23 00:45:49;;;;;;;24.50;7.25;;;5.40;99.90;;;;;;4942244;28;20057;-63
2022/01/23 00:48:17;;;;;;;13.45;5.00;;;5.40;99.90;;;;;;4942420;28;20431;-63
2022/01/23 00:50:45;;;;;;;21.80;8.02;;;5.40;99.90;;;;;;4941299;28;20039;-62
2022/01/23 00:53:12;;;;;;;26.70;7.97;;;5.30;99.90;;;;;;4945301;28;20029;-63
2022/01/23 00:55:45;;;;;;;25.02;9.02;;;5.40;99.90;;;;;;4939330;28;20145;-62
2022/01/23 00:58:13;;;;;;;18.55;6.63;;;5.30;99.90;;;;;;4941277;28;20436;-62
2022/01/23 01:00:41;;;;;;;22.05;9.18;;;5.30;99.90;;;;;;4938060;28;20452;-63
2022/01/23 01:03:07;;;;;;;11.98;6.43;;;5.20;99.90;;;;;;4941901;28;20047;-62
2022/01/23 01:05:33;;;;;;;13.43;6.82;;;5.20;99.90;;;;;;4943281;28;20044;-62
2022/01/23 01:08:00;;;;;;;16.85;6.65;;;5.30;99.90;;;;;;4943226;28;20050;-64
2022/01/23 01:10:35;;;;;;;16.15;6.30;;;5.30;99.90;;;;;;4941693;28;20094;-62
2022/01/23 01:13:02;;;;;;;17.27;8.00;;;5.20;99.90;;;;;;4942664;28;20027;-62
2022/01/23 01:31:30;;;;;;;19.17;7.13;;;5.40;99.90;;;;;;4940759;28;20127;-63
2022/01/23 01:39:05;;;;;;;11.07;5.47;;;5.30;99.90;;;;;;4941815;28;20035;-62
2022/01/23 01:41:33;;;;;;;16.55;6.07;;;5.20;99.90;;;;;;4948183;28;20134;-62
2022/01/23 01:43:59;;;;;;;19.02;7.25;;;5.20;99.90;;;;;;4946130;28;20074;-63
2022/01/23 01:46:25;;;;;;;15.80;7.03;;;5.20;99.90;;;;;;4945294;28;20435;-63
2022/01/23 01:48:51;;;;;;;19.90;7.20;;;5.20;99.90;;;;;;4942104;28;20047;-63
2022/01/23 01:51:18;;;;;;;19.83;6.50;;;5.30;99.90;;;;;;4944999;28;20110;-63
2022/01/23 01:53:51;;;;;;;19.60;6.05;;;5.20;99.90;;;;;;4948440;28;20400;-63
2022/01/23 01:56:18;;;;;;;23.00;7.75;;;5.20;99.90;;;;;;4940965;28;20023;-63
2022/01/23 01:59:09;;;;;;;13.68;4.82;;;5.20;99.90;;;;;;4942948;28;20055;-62
2022/01/23 02:09:36;;;;;;;9.20;5.03;;;5.20;99.90;;;;;;4937771;28;20043;-63
2022/01/23 02:17:26;;;;;;;16.10;6.00;;;5.10;99.90;;;;;;4941514;28;20054;-62
2022/01/23 02:55:25;;;;;;;11.27;4.40;;;5.10;99.90;;;;;;4936795;28;20177;-63
2022/01/23 02:57:54;;;;;;;15.07;6.03;;;5.10;99.90;;;;;;4939144;28;20027;-63
2022/01/23 03:00:23;;;;;;;13.55;5.68;;;5.10;99.90;;;;;;4939240;28;20042;-63
2022/01/23 03:02:50;;;;;;;15.57;5.45;;;5.10;99.90;;;;;;4945000;28;20031;-63
2022/01/23 03:06:09;;;;;;;17.23;6.32;;;5.10;99.90;;;;;;4939422;28;20031;-63
2022/01/23 03:10:47;;;;;;;16.15;6.72;;;5.20;99.90;;;;;;4948498;28;20061;-63
2022/01/23 03:14:12;;;;;;;16.30;5.03;;;5.20;99.90;;;;;;4942838;28;20372;-63
2022/01/23 03:24:49;;;;;;;18.30;7.53;;;5.20;99.90;;;;;;4940268;28;20379;-63
2022/01/23 03:27:37;;;;;;;;;;;5.20;99.90;;;;;;4942525;28;20527;-63
2022/01/23 03:30:16;;;;;;;7.80;3.53;;;5.20;99.90;;;;;;4939827;28;19925;-63
2022/01/23 03:32:46;;;;;;;13.60;6.00;;;5.20;99.90;;;;;;4936237;28;20071;-63
2022/01/23 03:35:12;;;;;;;11.40;5.65;;;5.20;99.90;;;;;;4939722;28;20031;-63
2022/01/23 03:37:38;;;;;;;18.00;4.90;;;5.20;99.90;;;;;;4941985;28;20035;-63
2022/01/23 03:40:05;;;;;;;14.07;5.65;;;5.20;99.90;;;;;;4939818;28;20042;-63
2022/01/23 03:42:34;;;;;;;10.80;5.63;;;5.20;99.90;;;;;;4939808;28;20074;-63
2022/01/23 03:48:02;;;;;;;28.95;5.53;;;5.10;99.90;;;;;;4940532;28;20585;-63
2022/01/23 03:50:27;;;;;;;19.55;7.55;;;5.20;99.90;;;;;;4932815;28;20388;-63
2022/01/23 03:52:53;;;;;;;19.08;7.55;;;5.20;99.90;;;;;;4933761;28;20035;-63
2022/01/23 03:55:18;;;;;;;23.92;7.65;;;5.10;99.90;;;;;;4937617;28;20039;-63
2022/01/23 03:57:44;;;;;;;21.42;7.30;;;5.10;99.90;;;;;;4940933;28;20031;-63
2022/01/23 04:00:11;;;;;;;20.35;6.40;;;5.10;99.90;;;;;;4934576;28;20041;-63
2022/01/23 04:02:36;;;;;;;26.30;7.90;;;5.10;99.90;;;;;;4940182;28;20443;-63
2022/01/23 04:05:02;;;;;;;18.48;6.45;;;5.00;99.90;;;;;;4934615;28;20043;-63
2022/01/23 04:07:29;;;;;;;18.48;7.38;;;5.10;99.90;;;;;;4932484;28;20087;-63
2022/01/23 04:09:55;;;;;;;19.63;7.05;;;5.10;99.90;;;;;;4937461;28;20488;-63
2022/01/23 04:15:38;;;;;;;19.75;7.10;;;5.00;99.90;;;;;;4926697;28;21243;-63
2022/01/23 04:34:32;;;;;;;23.38;7.05;;;5.00;99.90;;;;;;4923217;29;20047;-62
2022/01/23 04:45:31;;;;;;;11.85;4.07;;;4.90;99.90;;;;;;4942357;28;20086;-62
2022/01/23 05:01:41;;;;;;;14.00;6.43;;;4.80;99.90;;;;;;4944092;28;20042;-63
2022/01/23 05:04:14;;;;;;;13.85;5.85;;;4.80;99.90;;;;;;4943536;28;20035;-63
2022/01/23 05:06:57;;;;;;;26.83;8.63;;;4.80;99.90;;;;;;4942308;28;20450;-63
2022/01/23 05:09:24;;;;;;;18.17;4.53;;;4.90;99.90;;;;;;4940331;29;20075;-63
2022/01/23 05:11:54;;;;;;;21.35;5.43;;;4.80;99.90;;;;;;4942751;28;20452;-63
2022/01/23 05:14:27;;;;;;;16.40;4.32;;;4.90;99.90;;;;;;4943955;28;20035;-63
2022/01/23 05:16:53;;;;;;;11.23;5.30;;;4.90;99.90;;;;;;4930582;28;20035;-63
2022/01/23 05:19:19;;;;;;;22.85;6.38;;;4.90;99.90;;;;;;4926449;29;20539;-63
2022/01/23 05:24:17;;;;;;;11.65;5.28;;;4.70;99.90;;;;;;4945461;28;20039;-63
2022/01/23 05:26:45;;;;;;;14.48;5.60;;;4.90;99.90;;;;;;4939110;28;20492;-63
2022/01/23 05:29:12;;;;;;;20.17;5.25;;;4.90;99.90;;;;;;4942195;28;20401;-63
2022/01/23 05:31:37;;;;;;;11.43;4.25;;;4.90;99.90;;;;;;4944693;29;20491;-63
2022/01/23 05:34:03;;;;;;;15.57;5.47;;;4.90;99.90;;;;;;4943539;28;20035;-63
2022/01/23 05:36:29;;;;;;;14.45;5.53;;;5.00;99.90;;;;;;4945857;28;20042;-63
2022/01/23 05:38:55;;;;;;;28.40;4.38;;;4.80;99.90;;;;;;4942293;28;20031;-63
2022/01/23 05:41:20;;;;;;;9.77;3.58;;;4.90;99.90;;;;;;4948428;28;20032;-63
2022/01/23 05:43:46;;;;;;;12.10;3.17;;;4.90;99.90;;;;;;4940367;28;20043;-63
2022/01/23 05:46:12;;;;;;;10.68;4.45;;;4.90;99.90;;;;;;4944371;28;20078;-63
2022/01/23 05:48:38;;;;;;;13.50;4.15;;;5.00;99.90;;;;;;4940996;28;20028;-63
2022/01/23 05:51:05;;;;;;;8.77;3.55;;;5.00;99.90;;;;;;4946570;28;20135;-63
2022/01/23 05:53:31;;;;;;;10.43;3.90;;;5.00;99.90;;;;;;4940931;28;20023;-63
2022/01/23 05:55:56;;;;;;;14.35;4.03;;;4.90;99.90;;;;;;4941487;28;20404;-63
2022/01/23 05:58:22;;;;;;;9.02;4.55;;;4.80;99.90;;;;;;4943854;28;20027;-63
2022/01/23 06:00:48;;;;;;;6.28;3.00;;;4.90;99.90;;;;;;4944560;28;20035;-63
2022/01/23 06:03:13;;;;;;;8.45;3.67;;;5.00;99.90;;;;;;4937039;28;21375;-63
2022/01/23 06:05:39;;;;;;;12.15;4.22;;;5.00;99.90;;;;;;4947641;28;20503;-63
2022/01/23 06:08:04;;;;;;;11.55;2.72;;;4.90;99.90;;;;;;4941045;28;20066;-63
2022/01/23 06:10:46;;;;;;;9.75;4.20;;;4.80;99.90;;;;;;4943322;28;20436;-63
2022/01/23 06:13:11;;;;;;;12.10;3.75;;;4.80;99.90;;;;;;4941886;28;20027;-63
2022/01/23 06:15:37;;;;;;;13.65;3.80;;;4.70;99.90;;;;;;4946300;29;20038;-63
2022/01/23 06:18:02;;;;;;;6.78;3.50;;;4.60;99.90;;;;;;4936489;28;20036;-63
2022/01/23 06:20:28;;;;;;;7.93;3.13;;;4.60;99.90;;;;;;4944259;28;20033;-64
2022/01/23 06:22:54;;;;;;;7.03;3.30;;;4.50;99.90;;;;;;4943016;28;20047;-63
2022/01/23 06:25:20;;;;;;;8.82;3.78;;;4.40;99.90;;;;;;4942470;28;20042;-63
2022/01/23 06:27:46;;;;;;;6.53;3.55;;;4.50;99.90;;;;;;4944992;28;20048;-63
2022/01/23 06:30:12;;;;;;;17.95;5.20;;;4.60;99.90;;;;;;4942103;28;20049;-63
2022/01/23 06:32:39;;;;;;;13.02;3.03;;;4.70;99.90;;;;;;4941505;28;20145;-63
2022/01/23 06:35:05;;;;;;;8.93;3.47;;;4.60;99.90;;;;;;4934136;28;20123;-63
2022/01/23 06:37:30;;;;;;;9.90;3.50;;;4.60;99.90;;;;;;4944958;28;20072;-63
2022/01/23 06:39:56;;;;;;;6.10;2.60;;;4.60;99.90;;;;;;4942981;28;20019;-63
2022/01/23 06:42:22;;;;;;;12.73;3.42;;;4.70;99.90;;;;;;4938286;28;20044;-63
2022/01/23 06:44:47;;;;;;;8.18;4.30;;;4.70;99.90;;;;;;4942261;28;20039;-63
2022/01/23 06:47:13;;;;;;;7.25;2.92;;;4.80;99.90;;;;;;4941078;28;20047;-63
2022/01/23 06:49:39;;;;;;;10.63;4.50;;;4.90;99.90;;;;;;4943272;28;20034;-62
2022/01/23 06:52:05;;;;;;;8.90;4.10;;;4.90;99.90;;;;;;4940192;28;20031;-62
2022/01/23 06:54:30;;;;;;;27.15;3.80;;;4.90;99.90;;;;;;4929432;28;20167;-62
2022/01/23 06:56:56;;;;;;;7.93;3.25;;;4.90;99.90;;;;;;4943954;28;20106;-62
2022/01/23 06:59:22;;;;;;;10.63;4.03;;;5.00;99.90;;;;;;4941764;28;20035;-63
2022/01/23 07:01:47;;;;;;;6.68;3.67;;;4.80;99.90;;;;;;4945879;28;20030;-62
2022/01/23 07:04:13;;;;;;;10.52;4.85;;;5.00;99.90;;;;;;4941158;28;20403;-62
2022/01/23 07:06:38;;;;;;;8.75;3.45;;;5.00;99.90;;;;;;4945196;28;20035;-62
2022/01/23 07:09:04;;;;;;;20.88;5.68;;;5.00;99.90;;;;;;4935209;28;20088;-62
2022/01/23 07:11:30;;;;;;;13.05;3.25;;;5.00;99.90;;;;;;4945208;28;20035;-62
2022/01/23 07:13:55;;;;;;;9.70;3.45;;;4.90;99.90;;;;;;4944314;28;20404;-63
2022/01/23 07:16:21;;;;;;;7.53;3.83;;;5.00;99.90;;;;;;4943705;28;20123;-63
2022/01/23 07:18:46;;;;;;;8.35;4.03;;;5.00;99.90;;;;;;4940342;28;20032;-62
2022/01/23 07:21:12;;;;;;;8.98;4.53;;;5.00;99.90;;;;;;4937514;28;20361;-62
2022/01/23 07:23:37;;;;;;;22.85;5.30;;;5.10;99.90;;;;;;4948835;28;20525;-62
2022/01/23 07:26:03;;;;;;;17.88;6.18;;;5.00;99.90;;;;;;4947016;28;20067;-62
2022/01/23 07:28:38;;;;;;;14.02;5.55;;;5.00;99.90;;;;;;4946170;28;20451;-62
2022/01/23 07:31:06;;;;;;;12.65;3.80;;;5.00;99.90;;;;;;4943156;28;20035;-62
2022/01/23 07:33:33;;;;;;;8.43;3.88;;;5.00;99.90;;;;;;4938296;28;20028;-62
2022/01/23 07:35:59;;;;;;;13.25;5.07;;;5.00;99.90;;;;;;4940588;28;20476;-63
2022/01/23 07:38:25;;;;;;;11.98;5.63;;;4.90;99.90;;;;;;4936752;28;20031;-63
2022/01/23 07:40:51;;;;;;;13.23;4.47;;;4.90;99.90;;;;;;4942716;28;20031;-64
2022/01/23 07:43:16;;;;;;;16.95;4.78;;;4.80;99.90;;;;;;4941445;28;20492;-64
2022/01/23 07:45:43;;;;;;;16.55;7.32;;;4.80;99.90;;;;;;4939057;28;20450;-65
2022/01/23 07:48:09;;;;;;;13.43;4.78;;;4.80;99.90;;;;;;4941697;28;20444;-65
2022/01/23 07:50:36;;;;;;;20.75;7.18;;;4.80;99.90;;;;;;4939324;28;20036;-65
2022/01/23 07:53:02;;;;;;;13.30;4.88;;;4.90;99.90;;;;;;4939893;28;20097;-63
2022/01/23 07:55:28;;;;;;;16.50;4.00;;;5.00;99.90;;;;;;4918732;28;20027;-63
2022/01/23 07:57:58;;;;;;;13.15;5.05;;;5.00;99.90;;;;;;4939579;28;20444;-63
2022/01/23 08:00:24;;;;;;;12.23;4.40;;;5.10;99.90;;;;;;4941557;28;20166;-63
2022/01/23 08:02:50;;;;;;;13.15;4.68;;;5.20;99.90;;;;;;4938193;28;20551;-63
2022/01/23 08:05:15;;;;;;;20.08;4.85;;;5.20;99.90;;;;;;4939737;28;20599;-63
2022/01/23 08:07:41;;;;;;;14.65;5.70;;;5.20;99.90;;;;;;4938571;28;20023;-63
2022/01/23 08:10:08;;;;;;;20.15;7.55;;;5.10;99.90;;;;;;4940950;28;20042;-64
2022/01/23 08:12:35;;;;;;;11.50;4.10;;;5.00;99.90;;;;;;4939325;28;20032;-64
2022/01/23 08:15:02;;;;;;;13.45;4.80;;;5.10;99.90;;;;;;4928210;28;20078;-63
2022/01/23 08:17:28;;;;;;;13.30;6.35;;;5.50;99.90;;;;;;4946942;28;20066;-63
2022/01/23 08:19:59;;;;;;;16.83;6.18;;;5.30;99.90;;;;;;4944621;28;20488;-64
2022/01/23 08:22:27;;;;;;;13.70;5.07;;;5.40;99.90;;;;;;4949064;28;20023;-64
2022/01/23 08:24:55;;;;;;;21.05;6.05;;;5.40;99.90;;;;;;4947632;28;20031;-64
2022/01/23 08:27:24;;;;;;;15.23;4.75;;;5.50;99.90;;;;;;4951872;28;20066;-63
2022/01/23 08:29:51;;;;;;;17.17;4.43;;;5.50;99.90;;;;;;4946348;28;20039;-64
2022/01/23 08:32:17;;;;;;;14.02;6.68;;;5.40;99.90;;;;;;4942973;28;20077;-64
2022/01/23 08:34:44;;;;;;;25.85;6.05;;;5.60;99.90;;;;;;4949494;28;20030;-64
2022/01/23 08:37:10;;;;;;;16.38;3.65;;;5.50;99.90;;;;;;4944618;28;20039;-64
2022/01/23 08:39:37;;;;;;;15.88;5.47;;;5.60;99.90;;;;;;4946023;28;20036;-64
2022/01/23 08:42:15;;;;;;;15.18;5.63;;;5.60;99.90;;;;;;4933405;28;20083;-64
2022/01/23 08:44:41;;;;;;;17.20;7.15;;;5.60;99.90;;;;;;4939153;28;20032;-65
2022/01/23 08:47:07;;;;;;;11.75;4.97;;;5.60;99.90;;;;;;4941257;28;20030;-64
2022/01/23 08:49:34;;;;;;;12.52;4.75;;;5.60;99.90;;;;;;4947081;28;20109;-64
2022/01/23 08:51:59;;;;;;;17.27;6.15;;;5.70;99.90;;;;;;4951073;28;20023;-64
2022/01/23 08:54:27;;;;;;;20.85;6.45;;;5.80;99.90;;;;;;4946413;28;20085;-64
2022/01/23 08:56:53;;;;;;;11.50;4.90;;;5.70;99.90;;;;;;4922323;28;20039;-64
2022/01/23 08:59:19;;;;;;;13.32;5.45;;;5.70;99.90;;;;;;4922572;28;20039;-65
2022/01/23 09:01:46;;;;;;;11.23;4.63;;;5.80;99.90;;;;;;4942437;28;20027;-64
2022/01/23 09:04:15;;;;;;;12.82;6.45;;;5.80;99.90;;;;;;4941328;28;20118;-64
2022/01/23 09:06:45;;;;;;;18.67;5.60;;;5.90;99.90;;;;;;4943749;28;20483;-64
2022/01/23 09:09:16;;;;;;;17.05;5.55;;;5.90;99.90;;;;;;4944558;28;20035;-64
2022/01/23 09:11:56;;;;;;;17.85;5.63;;;5.80;99.90;;;;;;4956626;28;20049;-64
2022/01/23 09:14:22;;;;;;;16.70;6.05;;;5.80;99.90;;;;;;4944077;28;20027;-64
2022/01/23 09:16:49;;;;;;;14.20;7.15;;;5.80;99.90;;;;;;4951108;28;20476;-64
2022/01/23 09:19:17;;;;;;;22.25;5.72;;;5.90;99.90;;;;;;4941939;28;20486;-64
2022/01/23 09:21:44;;;;;;;20.90;6.80;;;5.90;99.90;;;;;;4946272;28;20023;-64
2022/01/23 09:24:09;;;;;;;19.90;6.72;;;6.20;99.90;;;;;;4944289;28;20039;-64
2022/01/23 09:26:37;;;;;;;9.02;4.43;;;6.00;99.90;;;;;;4944648;28;20038;-64
2022/01/23 09:29:12;;;;;;;16.30;5.68;;;6.00;99.90;;;;;;4957007;28;20049;-64
2022/01/23 09:31:50;;;;;;;26.30;6.43;;;6.20;99.90;;;;;;4945394;28;20659;-64
2022/01/23 09:34:22;;;;;;;19.23;8.63;;;6.30;99.90;;;;;;4942502;28;20035;-64
2022/01/23 09:36:48;;;;;;;19.30;6.85;;;6.10;99.90;;;;;;4941999;28;20031;-65
2022/01/23 09:39:15;;;;;;;19.52;6.22;;;6.20;99.90;;;;;;4941467;28;20525;-64
2022/01/23 09:41:48;;;;;;;25.10;7.35;;;6.20;99.90;;;;;;4950079;28;20102;-65
2022/01/23 09:44:16;;;;;;;15.32;6.32;;;6.20;99.90;;;;;;4944300;28;20447;-64
2022/01/23 09:46:44;;;;;;;18.52;7.03;;;6.70;99.90;;;;;;4940866;28;20037;-64
2022/01/23 09:49:12;;;;;;;25.92;7.47;;;6.60;99.90;;;;;;4947394;28;20047;-64
2022/01/23 09:51:42;;;;;;;18.77;7.88;;;6.50;99.90;;;;;;4945614;28;20327;-64
2022/01/23 09:54:18;;;;;;;19.50;5.57;;;6.30;99.90;;;;;;4935173;28;20445;-64
2022/01/23 09:56:44;;;;;;;17.85;5.65;;;6.40;99.90;;;;;;4922622;29;20023;-64
2022/01/23 09:59:12;;;;;;;14.68;4.93;;;6.60;99.90;;;;;;4941689;28;20408;-65
2022/01/23 10:01:41;;;;;;;19.73;7.32;;;6.70;99.90;;;;;;4938345;28;20040;-63
2022/01/23 10:04:08;;;;;;;14.82;4.68;;;6.80;99.90;;;;;;4932818;29;20040;-63
2022/01/23 10:06:34;;;;;;;21.85;5.95;;;6.90;99.90;;;;;;4935797;29;20067;-63
2022/01/23 10:09:00;;;;;;;19.95;7.70;;;6.80;99.90;;;;;;4933409;28;20040;-63
2022/01/23 10:11:31;;;;;;;15.95;6.40;;;6.80;99.90;;;;;;4929661;28;20517;-64
2022/01/23 10:13:56;;;;;;;;;;;6.80;99.90;;;;;;4931647;28;20032;-65
2022/01/23 10:16:22;;;;;;;13.70;6.63;;;6.60;99.90;;;;;;4927541;28;19918;-63
2022/01/23 10:18:48;;;;;;;14.70;4.65;;;6.70;99.90;;;;;;4930576;29;20034;-63
2022/01/23 10:21:14;;;;;;;15.93;5.80;;;6.70;99.90;;;;;;4935702;29;20067;-63
2022/01/23 10:23:41;;;;;;;20.02;7.45;;;6.70;99.90;;;;;;4939837;29;20067;-65
2022/01/23 10:26:07;;;;;;;27.38;5.65;;;6.80;99.90;;;;;;4932143;28;20050;-63
2022/01/23 10:28:35;;;;;;;12.35;5.95;;;7.00;99.90;;;;;;4944454;28;20034;-64
2022/01/23 10:31:05;;;;;;;11.73;5.75;;;6.80;99.90;;;;;;4920911;29;20035;-64
2022/01/23 10:33:37;;;;;;;18.33;6.80;;;7.00;99.90;;;;;;4943451;28;20051;-63
2022/01/23 10:36:04;;;;;;;16.48;5.55;;;7.10;99.90;;;;;;4948942;28;20498;-63
2022/01/23 10:38:54;;;;;;;16.67;7.10;;;7.20;99.90;;;;;;4937018;28;20027;-63
2022/01/23 10:49:52;;;;;;;22.13;7.80;;;7.20;99.90;;;;;;4948026;28;20031;-64
2022/01/23 10:52:36;;;;;;;13.95;4.68;;;7.30;99.90;;;;;;4928676;29;20042;-63
2022/01/23 10:55:13;;;;;;;30.30;5.32;;;7.50;99.90;;;;;;4944079;28;20047;-65
2022/01/23 10:57:41;;;;;;;17.58;6.03;;;7.40;99.90;;;;;;4940955;29;20552;-63
2022/01/23 11:00:10;;;;;;;19.48;6.82;;;7.40;99.90;;;;;;4941143;28;20110;-64
2022/01/23 11:02:41;;;;;;;14.32;6.40;;;7.20;99.90;;;;;;4939867;28;20106;-64
2022/01/23 11:05:11;;;;;;;16.45;6.50;;;7.10;99.90;;;;;;4941353;28;20055;-64
2022/01/23 11:07:40;;;;;;;15.52;4.97;;;7.00;99.90;;;;;;4941806;28;20027;-64
2022/01/23 11:10:13;;;;;;;15.52;5.65;;;7.10;99.90;;;;;;4940990;28;20078;-65
2022/01/23 11:17:59;;;;;;;21.58;6.57;;;7.40;99.90;;;;;;4941864;29;20038;-64
2022/01/23 11:20:40;;;;;;;24.98;7.43;;;7.30;99.90;;;;;;4941137;28;20034;-64
2022/01/23 11:23:15;;;;;;;19.27;7.03;;;7.10;99.90;;;;;;4945695;29;20047;-63
2022/01/23 11:26:06;;;;;;;12.77;5.85;;;7.10;99.90;;;;;;4941873;28;20487;-63
2022/01/23 11:28:46;;;;;;;14.70;4.90;;;7.30;99.90;;;;;;4943692;28;20039;-63
2022/01/23 11:31:19;;;;;;;19.70;6.57;;;7.30;99.90;;;;;;4941193;28;20039;-63
2022/01/23 11:33:46;;;;;;;16.08;5.32;;;7.40;99.90;;;;;;4945032;28;20048;-63
2022/01/23 11:36:12;;;;;;;19.00;6.22;;;7.40;99.90;;;;;;4942877;28;20027;-63
2022/01/23 11:38:40;;;;;;;18.90;7.00;;;7.40;99.90;;;;;;4923978;28;20038;-64
2022/01/23 11:55:05;;;;;;;20.20;5.18;;;7.60;99.90;;;;;;4926375;28;20071;-64
2022/01/23 11:57:37;;;;;;;19.77;6.20;;;7.60;99.90;;;;;;4943412;28;20051;-64
2022/01/23 12:00:25;;;;;;;13.50;5.35;;;7.50;99.90;;;;;;4944516;28;20027;-64
2022/01/23 12:03:12;;;;;;;13.65;4.85;;;7.50;99.90;;;;;;4944145;28;20031;-65
2022/01/23 12:05:42;;;;;;;23.92;5.68;;;7.50;99.90;;;;;;4947937;28;20055;-64
2022/01/23 12:08:18;;;;;;;14.73;4.95;;;7.40;99.90;;;;;;4939111;28;20400;-64
2022/01/23 12:16:53;;;;;;;;;;;7.50;99.90;;;;;;4950211;28;20066;-63
2022/01/23 12:19:23;;;;;;;12.90;4.60;;;7.30;99.90;;;;;;4944142;28;19921;-63
2022/01/23 12:21:53;;;;;;;17.92;6.07;;;7.40;99.90;;;;;;4945559;28;20471;-64
2022/01/23 12:24:20;;;;;;;13.40;5.83;;;7.40;99.90;;;;;;4945540;28;20054;-64
2022/01/23 12:26:47;;;;;;;20.90;5.35;;;7.20;99.90;;;;;;4945933;28;20286;-63
2022/01/23 12:29:24;;;;;;;18.05;5.78;;;7.30;99.90;;;;;;4940134;28;20094;-64
2022/01/23 12:32:29;;;;;;;16.02;6.97;;;7.20;99.90;;;;;;4945032;28;20488;-64
2022/01/23 12:34:57;;;;;;;16.40;5.47;;;7.20;99.90;;;;;;4949867;28;20450;-63
2022/01/23 12:37:24;;;;;;;10.68;3.95;;;7.20;99.90;;;;;;4943833;28;20248;-63
2022/01/23 12:40:26;;;;;;;11.45;4.78;;;7.20;99.90;;;;;;4945804;28;20543;-64
2022/01/23 12:43:14;;;;;;;24.95;6.35;;;7.20;99.90;;;;;;4945440;28;20040;-63
2022/01/23 12:46:05;;;;;;;15.13;5.72;;;6.90;99.90;;;;;;4945126;28;20039;-63
2022/01/23 12:48:36;;;;;;;19.02;6.13;;;7.10;99.90;;;;;;4943058;28;20419;-63
2022/01/23 12:51:17;;;;;;;16.63;7.07;;;6.90;99.90;;;;;;4944615;28;20089;-63
2022/01/23 12:53:45;;;;;;;18.75;4.88;;;6.70;99.90;;;;;;4948148;28;20031;-64
2022/01/23 12:56:22;;;;;;;14.00;5.30;;;6.70;99.90;;;;;;4936218;28;20031;-63
2022/01/23 12:58:54;;;;;;;13.75;5.18;;;6.90;99.90;;;;;;4943296;28;20024;-64
2022/01/23 13:01:23;;;;;;;15.40;6.32;;;6.90;99.90;;;;;;4943647;28;20440;-64
2022/01/23 13:03:57;;;;;;;14.68;4.97;;;6.90;99.90;;;;;;4933409;28;20475;-64
2022/01/23 13:06:33;;;;;;;22.55;5.35;;;7.00;99.90;;;;;;4951059;28;20031;-64
2022/01/23 13:10:05;;;;;;;14.43;5.53;;;6.90;99.90;;;;;;4934169;28;20143;-64
2022/01/23 13:31:55;;;;;;;14.68;4.72;;;6.80;99.90;;;;;;4944771;28;20526;-64
2022/01/23 13:34:40;;;;;;;12.70;4.97;;;7.00;99.90;;;;;;4947862;28;20031;-64
2022/01/23 13:37:15;;;;;;;17.98;5.13;;;7.00;99.90;;;;;;4940441;28;20062;-64
2022/01/23 13:39:48;;;;;;;9.75;3.65;;;6.80;99.90;;;;;;4941080;28;20475;-64
2022/01/23 13:42:33;;;;;;;15.02;4.50;;;6.80;99.90;;;;;;4943803;28;20086;-64
2022/01/23 13:59:16;;;;;;;14.82;5.35;;;6.90;99.90;;;;;;4945602;28;20035;-64
2022/01/23 14:04:19;;;;;;;15.02;5.15;;;6.80;99.90;;;;;;4943133;28;20031;-64
2022/01/23 14:06:46;;;;;;;17.73;5.75;;;6.70;99.90;;;;;;4944984;28;20488;-64
2022/01/23 14:09:13;;;;;;;15.02;5.47;;;6.80;99.90;;;;;;4938115;28;20063;-64
2022/01/23 14:11:40;;;;;;;13.48;5.63;;;6.70;99.90;;;;;;4945561;28;20082;-64
2022/01/23 14:14:22;;;;;;;10.88;4.63;;;6.70;99.90;;;;;;4940859;28;20242;-64
2022/01/23 14:16:51;;;;;;;13.82;5.68;;;6.90;99.90;;;;;;4953340;28;20041;-64
2022/01/23 14:19:28;;;;;;;13.02;4.88;;;6.80;99.90;;;;;;4947899;28;20027;-64
2022/01/23 14:21:59;;;;;;;13.48;5.38;;;6.70;99.90;;;;;;4949283;28;20023;-64
2022/01/23 14:24:29;;;;;;;15.38;5.25;;;6.80;99.90;;;;;;4954995;28;20085;-64
2022/01/23 14:27:11;;;;;;;15.35;4.85;;;6.80;99.90;;;;;;4949105;28;20027;-64
2022/01/23 14:29:52;;;;;;;11.70;4.65;;;6.80;99.90;;;;;;4941365;28;20489;-64
2022/01/23 14:32:36;;;;;;;20.48;6.00;;;7.00;99.90;;;;;;4946262;28;20037;-65
2022/01/23 14:35:07;;;;;;;14.63;5.45;;;7.00;99.90;;;;;;4948553;28;20098;-64
2022/01/23 14:37:33;;;;;;;;;;;7.00;99.90;;;;;;4939387;28;20024;-64
2022/01/23 14:40:18;;;;;;;17.58;5.03;;;6.90;99.90;;;;;;4942865;28;19914;-64
2022/01/23 14:42:59;;;;;;;10.77;4.15;;;6.80;99.90;;;;;;4945761;28;20534;-64
2022/01/23 14:45:27;;;;;;;13.10;4.10;;;6.90;99.90;;;;;;4921411;29;20063;-64
2022/01/23 14:47:53;;;;;;;16.80;6.13;;;6.60;99.90;;;;;;4942127;28;20035;-64
2022/01/23 14:50:20;;;;;;;15.40;5.00;;;6.70;99.90;;;;;;4942217;28;20035;-64
2022/01/23 14:52:48;;;;;;;14.00;4.20;;;6.60;99.90;;;;;;4942526;28;20115;-64
2022/01/23 14:55:13;;;;;;;10.68;3.67;;;6.50;99.90;;;;;;4925068;29;20045;-64
2022/01/23 14:57:41;;;;;;;15.57;5.93;;;6.50;99.90;;;;;;4943176;28;20031;-64
2022/01/23 15:00:09;;;;;;;19.63;6.78;;;6.40;99.90;;;;;;4935265;28;20023;-64
2022/01/23 15:02:35;;;;;;;10.43;3.97;;;6.40;99.90;;;;;;4944896;28;20031;-64
2022/01/23 15:05:03;;;;;;;11.07;5.22;;;6.40;99.90;;;;;;4943392;28;21584;-64
2022/01/23 15:07:40;;;;;;;13.00;4.10;;;6.50;99.90;;;;;;4937806;28;20502;-64
2022/01/23 15:10:08;;;;;;;14.25;5.60;;;6.60;99.90;;;;;;4942369;28;20023;-64
2022/01/23 15:12:34;;;;;;;13.20;5.45;;;6.50;99.90;;;;;;4938335;28;20480;-64
2022/01/23 15:14:59;;;;;;;12.35;4.97;;;6.30;99.90;;;;;;4938286;28;20074;-64
2022/01/23 15:17:26;;;;;;;9.13;4.35;;;6.20;99.90;;;;;;4940572;28;20042;-64
2022/01/23 15:19:53;;;;;;;19.70;5.45;;;6.10;99.90;;;;;;4940486;28;20261;-64
2022/01/23 15:22:19;;;;;;;13.38;5.25;;;6.10;99.90;;;;;;4942714;28;20114;-64
2022/01/23 15:24:45;;;;;;;15.70;5.38;;;6.00;99.90;;;;;;4942056;28;20042;-64
2022/01/23 15:27:11;;;;;;;9.88;4.50;;;6.10;99.90;;;;;;4944045;28;20073;-64
2022/01/23 15:29:36;;;;;;;19.15;7.47;;;6.10;99.90;;;;;;4945254;28;20241;-64
2022/01/23 15:32:02;;;;;;;14.50;5.15;;;6.10;99.90;;;;;;4939062;28;20035;-64
2022/01/23 15:34:29;;;;;;;12.88;5.05;;;6.10;99.90;;;;;;4947114;28;20387;-64
2022/01/23 15:36:55;;;;;;;12.98;5.45;;;6.30;99.90;;;;;;4948105;28;20034;-64
2022/01/23 15:39:22;;;;;;;12.48;5.72;;;6.40;99.90;;;;;;4939387;28;20042;-64
2022/01/23 15:41:48;;;;;;;13.43;5.68;;;6.50;99.90;;;;;;4943193;28;20058;-64
2022/01/23 15:44:14;;;;;;;24.02;7.30;;;6.40;99.90;;;;;;4937792;28;20445;-64
2022/01/23 15:46:42;;;;;;;16.35;6.65;;;6.00;99.90;;;;;;4930867;28;20326;-64
2022/01/23 15:49:07;;;;;;;16.55;5.38;;;6.10;99.90;;;;;;4940399;28;20035;-64
2022/01/23 15:51:34;;;;;;;29.73;5.90;;;6.00;99.90;;;;;;4943224;28;20136;-64
2022/01/23 15:54:00;;;;;;;10.32;5.10;;;5.90;99.90;;;;;;4944340;28;20027;-64
2022/01/23 15:56:26;;;;;;;14.02;5.78;;;5.90;99.90;;;;;;4919735;28;20032;-64
2022/01/23 15:58:52;;;;;;;17.80;5.80;;;5.90;99.90;;;;;;4940379;28;20083;-65
2022/01/23 16:01:17;;;;;;;12.25;5.40;;;5.90;99.90;;;;;;4941189;28;20027;-64
2022/01/23 16:03:43;;;;;;;14.00;6.50;;;5.90;99.90;;;;;;4938960;28;20063;-64
2022/01/23 16:06:08;;;;;;;12.48;5.00;;;5.80;99.90;;;;;;4943218;28;20035;-64
2022/01/23 16:08:35;;;;;;;14.88;5.15;;;5.90;99.90;;;;;;4941713;28;20110;-64
2022/01/23 16:11:03;;;;;;;14.55;5.55;;;5.80;99.90;;;;;;4938476;28;20039;-64
2022/01/23 16:13:30;;;;;;;15.85;6.00;;;5.80;99.90;;;;;;4941807;28;20039;-64
2022/01/23 16:15:57;;;;;;;11.35;4.93;;;5.80;99.90;;;;;;4937351;28;20038;-64
2022/01/23 16:18:23;;;;;;;18.25;6.45;;;5.70;99.90;;;;;;4948649;28;20059;-64
2022/01/23 16:20:48;;;;;;;15.65;5.55;;;5.70;99.90;;;;;;4953572;28;20059;-64
2022/01/23 16:23:14;;;;;;;14.10;6.57;;;5.80;99.90;;;;;;4950382;28;20035;-64
2022/01/23 16:25:39;;;;;;;15.07;5.88;;;5.90;99.90;;;;;;4953663;28;20035;-64